sensor_id;sensor_type;location;lat;lon;timestamp;pressure;altitude;pressure_sealevel;temperature;humidity
75036;BME280;64247;51.540;5.854;2023-04-24T00:01:47;99700.66;;;8.70;100.00
75036;BME280;64247;51.540;5.854;2023-04-24T00:03:49;99694.97;;;8.76;100.00
75036;BME280;64247;51.540;5.854;2023-04-24T00:05:50;99700.81;;;8.78;100.00
75036;BME280;64247;51.540;5.854;2023-04-24T00:07:51;99705.03;;;8.75;100.00
75036;BME280;64247;51.540;5.854;2023-04-24T00:09:55;99697.34;;;8.77;100.00
75036;BME280;64247;51.540;5.854;2023-04-24T00:11:56;99696.91;;;8.75;100.00
75036;BME280;64247;51.540;5.854;2023-04-24T00:13:58;99703.44;;;8.74;100.00
75036;BME280;64247;51.540;5.854;2023-04-24T00:15:59;99714.63;;;8.73;100.00
75036;BME280;64247;51.540;5.854;2023-04-24T00:17:59;99715.69;;;8.68;100.00
75036;BME280;64247;51.540;5.854;2023-04-24T00:20:02;99719.97;;;8.69;100.00
75036;BME280;64247;51.540;5.854;2023-04-24T00:22:05;99718.81;;;8.70;100.00
75036;BME280;64247;51.540;5.854;2023-04-24T00:24:06;99717.34;;;8.73;100.00
75036;BME280;64247;51.540;5.854;2023-04-24T00:26:09;99719.25;;;8.72;100.00
75036;BME280;64247;51.540;5.854;2023-04-24T00:28:10;99711.84;;;8.69;100.00
75036;BME280;64247;51.540;5.854;2023-04-24T00:30:11;99721.19;;;8.71;100.00
75036;BME280;64247;51.540;5.854;2023-04-24T00:32:12;99717.41;;;8.76;100.00
75036;BME280;64247;51.540;5.854;2023-04-24T00:34:14;99719.31;;;8.76;100.00
75036;BME280;64247;51.540;5.854;2023-04-24T00:36:15;99715.84;;;8.75;100.00
75036;BME280;64247;51.540;5.854;2023-04-24T00:38:16;99723.31;;;8.82;100.00
75036;BME280;64247;51.540;5.854;2023-04-24T00:40:17;99722.53;;;8.81;100.00
75036;BME280;64247;51.540;5.854;2023-04-24T00:42:18;99720.25;;;8.83;100.00
75036;BME280;64247;51.540;5.854;2023-04-24T00:44:19;99711.00;;;8.84;100.00
75036;BME280;64247;51.540;5.854;2023-04-24T00:46:21;99721.75;;;8.81;100.00
75036;BME280;64247;51.540;5.854;2023-04-24T00:48:23;99725.25;;;8.81;100.00
75036;BME280;64247;51.540;5.854;2023-04-24T00:50:25;99715.97;;;8.82;100.00
75036;BME280;64247;51.540;5.854;2023-04-24T00:52:26;99724.94;;;8.86;100.00
75036;BME280;64247;51.540;5.854;2023-04-24T00:54:28;99722.47;;;8.78;100.00
75036;BME280;64247;51.540;5.854;2023-04-24T00:56:30;99722.38;;;8.74;100.00
75036;BME280;64247;51.540;5.854;2023-04-24T00:58:31;99713.47;;;8.74;100.00
75036;BME280;64247;51.540;5.854;2023-04-24T01:00:33;99723.53;;;8.73;100.00
75036;BME280;64247;51.540;5.854;2023-04-24T01:02:33;99713.41;;;8.70;100.00
75036;BME280;64247;51.540;5.854;2023-04-24T01:04:35;99724.44;;;8.61;100.00
75036;BME280;64247;51.540;5.854;2023-04-24T01:06:40;99719.25;;;8.52;100.00
75036;BME280;64247;51.540;5.854;2023-04-24T01:08:45;99705.88;;;8.44;100.00
75036;BME280;64247;51.540;5.854;2023-04-24T01:10:49;99733.13;;;8.35;100.00
75036;BME280;64247;51.540;5.854;2023-04-24T01:12:53;99715.25;;;8.30;100.00
75036;BME280;64247;51.540;5.854;2023-04-24T01:14:54;99713.00;;;8.32;100.00
75036;BME280;64247;51.540;5.854;2023-04-24T01:16:55;99717.53;;;8.28;100.00
75036;BME280;64247;51.540;5.854;2023-04-24T01:18:57;99716.66;;;8.24;100.00
75036;BME280;64247;51.540;5.854;2023-04-24T01:20:59;99712.31;;;8.19;100.00
75036;BME280;64247;51.540;5.854;2023-04-24T01:23:06;99712.25;;;8.16;100.00
75036;BME280;64247;51.540;5.854;2023-04-24T01:25:08;99712.94;;;8.13;100.00
75036;BME280;64247;51.540;5.854;2023-04-24T01:27:10;99720.72;;;8.14;100.00
75036;BME280;64247;51.540;5.854;2023-04-24T01:29:11;99708.75;;;8.15;100.00
75036;BME280;64247;51.540;5.854;2023-04-24T01:31:12;99706.84;;;8.16;100.00
75036;BME280;64247;51.540;5.854;2023-04-24T01:33:14;99685.13;;;8.12;100.00
75036;BME280;64247;51.540;5.854;2023-04-24T01:35:16;99703.78;;;8.17;100.00
75036;BME280;64247;51.540;5.854;2023-04-24T01:37:16;99720.28;;;8.12;100.00
75036;BME280;64247;51.540;5.854;2023-04-24T01:39:17;99709.47;;;8.12;100.00
75036;BME280;64247;51.540;5.854;2023-04-24T01:41:21;99700.56;;;8.12;100.00
75036;BME280;64247;51.540;5.854;2023-04-24T01:43:23;99721.69;;;8.06;100.00
75036;BME280;64247;51.540;5.854;2023-04-24T01:45:25;99717.41;;;8.05;100.00
75036;BME280;64247;51.540;5.854;2023-04-24T01:47:26;99716.72;;;8.08;100.00
75036;BME280;64247;51.540;5.854;2023-04-24T01:49:27;99710.06;;;8.05;100.00
75036;BME280;64247;51.540;5.854;2023-04-24T01:51:28;99721.75;;;8.10;100.00
75036;BME280;64247;51.540;5.854;2023-04-24T01:53:31;99713.38;;;8.15;100.00
75036;BME280;64247;51.540;5.854;2023-04-24T01:55:31;99709.03;;;8.10;100.00
75036;BME280;64247;51.540;5.854;2023-04-24T01:57:33;99710.06;;;8.05;100.00
75036;BME280;64247;51.540;5.854;2023-04-24T01:59:34;99714.69;;;8.05;100.00
75036;BME280;64247;51.540;5.854;2023-04-24T02:01:37;99723.16;;;8.03;100.00
75036;BME280;64247;51.540;5.854;2023-04-24T02:03:39;99709.66;;;8.03;100.00
75036;BME280;64247;51.540;5.854;2023-04-24T02:05:40;99715.16;;;8.07;100.00
75036;BME280;64247;51.540;5.854;2023-04-24T02:07:40;99703.13;;;8.04;100.00
75036;BME280;64247;51.540;5.854;2023-04-24T02:09:43;99709.38;;;8.08;100.00
75036;BME280;64247;51.540;5.854;2023-04-24T02:11:44;99714.78;;;8.08;100.00
75036;BME280;64247;51.540;5.854;2023-04-24T02:13:45;99712.78;;;8.05;100.00
75036;BME280;64247;51.540;5.854;2023-04-24T02:15:45;99708.09;;;8.02;100.00
75036;BME280;64247;51.540;5.854;2023-04-24T02:17:46;99718.47;;;8.00;100.00
75036;BME280;64247;51.540;5.854;2023-04-24T02:19:47;99703.72;;;7.98;100.00
75036;BME280;64247;51.540;5.854;2023-04-24T02:21:48;99712.34;;;8.03;100.00
75036;BME280;64247;51.540;5.854;2023-04-24T02:23:49;99714.69;;;8.05;100.00
75036;BME280;64247;51.540;5.854;2023-04-24T02:25:50;99711.22;;;8.04;100.00
75036;BME280;64247;51.540;5.854;2023-04-24T02:27:53;99696.84;;;8.00;100.00
75036;BME280;64247;51.540;5.854;2023-04-24T02:29:54;99719.50;;;7.96;100.00
75036;BME280;64247;51.540;5.854;2023-04-24T02:31:55;99717.59;;;7.96;100.00
75036;BME280;64247;51.540;5.854;2023-04-24T02:33:56;99705.31;;;7.99;100.00
75036;BME280;64247;51.540;5.854;2023-04-24T02:35:57;99708.78;;;7.99;100.00
75036;BME280;64247;51.540;5.854;2023-04-24T02:37:58;99700.75;;;8.03;100.00
75036;BME280;64247;51.540;5.854;2023-04-24T02:39:59;99715.75;;;8.00;100.00
75036;BME280;64247;51.540;5.854;2023-04-24T02:41:59;99715.31;;;7.98;100.00
75036;BME280;64247;51.540;5.854;2023-04-24T02:44:02;99720.38;;;8.00;100.00
75036;BME280;64247;51.540;5.854;2023-04-24T02:46:02;99713.81;;;8.01;100.00
75036;BME280;64247;51.540;5.854;2023-04-24T02:48:03;99704.25;;;8.03;100.00
75036;BME280;64247;51.540;5.854;2023-04-24T02:50:05;99705.72;;;8.01;100.00
75036;BME280;64247;51.540;5.854;2023-04-24T02:52:07;99703.44;;;8.03;100.00
75036;BME280;64247;51.540;5.854;2023-04-24T02:54:08;99713.31;;;7.95;100.00
75036;BME280;64247;51.540;5.854;2023-04-24T02:56:10;99709.41;;;7.92;100.00
75036;BME280;64247;51.540;5.854;2023-04-24T02:58:12;99718.72;;;7.95;100.00
75036;BME280;64247;51.540;5.854;2023-04-24T03:00:13;99712.97;;;7.97;100.00
75036;BME280;64247;51.540;5.854;2023-04-24T03:02:15;99713.41;;;7.99;100.00
75036;BME280;64247;51.540;5.854;2023-04-24T03:04:16;99717.69;;;8.00;100.00
75036;BME280;64247;51.540;5.854;2023-04-24T03:06:20;99723.09;;;8.00;100.00
75036;BME280;64247;51.540;5.854;2023-04-24T03:08:21;99719.16;;;7.97;100.00
75036;BME280;64247;51.540;5.854;2023-04-24T03:10:22;99714.91;;;7.96;100.00
75036;BME280;64247;51.540;5.854;2023-04-24T03:12:23;99712.44;;;7.91;100.00
75036;BME280;64247;51.540;5.854;2023-04-24T03:14:24;99719.78;;;7.90;100.00
75036;BME280;64247;51.540;5.854;2023-04-24T03:16:25;99715.16;;;7.91;100.00
75036;BME280;64247;51.540;5.854;2023-04-24T03:18:29;99720.72;;;7.98;100.00
75036;BME280;64247;51.540;5.854;2023-04-24T03:20:30;99724.22;;;7.99;100.00
75036;BME280;64247;51.540;5.854;2023-04-24T03:22:32;99724.22;;;7.99;100.00
75036;BME280;64247;51.540;5.854;2023-04-24T03:24:34;99718.38;;;7.97;100.00
75036;BME280;64247;51.540;5.854;2023-04-24T03:26:35;99720.72;;;7.98;100.00
75036;BME280;64247;51.540;5.854;2023-04-24T03:28:50;99721.06;;;7.97;100.00
75036;BME280;64247;51.540;5.854;2023-04-24T03:30:51;99726.41;;;7.93;100.00
75036;BME280;64247;51.540;5.854;2023-04-24T03:32:53;99717.53;;;7.92;100.00
75036;BME280;64247;51.540;5.854;2023-04-24T03:34:59;99721.50;;;7.99;100.00
75036;BME280;64247;51.540;5.854;2023-04-24T03:37:00;99729.34;;;8.04;100.00
75036;BME280;64247;51.540;5.854;2023-04-24T03:39:02;99721.59;;;8.02;100.00
75036;BME280;64247;51.540;5.854;2023-04-24T03:41:07;99727.00;;;8.02;100.00
75036;BME280;64247;51.540;5.854;2023-04-24T03:43:19;99713.81;;;8.01;100.00
75036;BME280;64247;51.540;5.854;2023-04-24T03:45:20;99720.63;;;7.95;100.00
75036;BME280;64247;51.540;5.854;2023-04-24T03:47:24;99712.81;;;7.89;100.00
75036;BME280;64247;51.540;5.854;2023-04-24T03:49:26;99711.69;;;7.90;100.00
75036;BME280;64247;51.540;5.854;2023-04-24T03:51:27;99706.19;;;7.87;100.00
75036;BME280;64247;51.540;5.854;2023-04-24T03:53:35;99716.09;;;7.83;100.00
75036;BME280;64247;51.540;5.854;2023-04-24T03:55:36;99725.69;;;7.80;100.00
75036;BME280;64247;51.540;5.854;2023-04-24T03:57:37;99725.00;;;7.83;100.00
75036;BME280;64247;51.540;5.854;2023-04-24T03:59:51;99697.63;;;7.85;100.00
75036;BME280;64247;51.540;5.854;2023-04-24T04:01:53;99726.16;;;7.82;100.00
75036;BME280;64247;51.540;5.854;2023-04-24T04:03:54;99721.50;;;7.83;100.00
75036;BME280;64247;51.540;5.854;2023-04-24T04:05:58;99709.94;;;7.82;100.00
75036;BME280;64247;51.540;5.854;2023-04-24T04:08:00;99716.19;;;7.86;100.00
75036;BME280;64247;51.540;5.854;2023-04-24T04:10:01;99718.28;;;7.93;100.00
75036;BME280;64247;51.540;5.854;2023-04-24T04:12:02;99720.03;;;8.01;100.00
75036;BME280;64247;51.540;5.854;2023-04-24T04:14:03;99725.06;;;8.03;100.00
75036;BME280;64247;51.540;5.854;2023-04-24T04:16:08;99722.44;;;8.06;100.00
75036;BME280;64247;51.540;5.854;2023-04-24T04:18:09;99725.06;;;8.03;100.00
75036;BME280;64247;51.540;5.854;2023-04-24T04:20:10;99702.41;;;8.07;100.00
75036;BME280;64247;51.540;5.854;2023-04-24T04:22:13;99729.78;;;8.06;100.00
75036;BME280;64247;51.540;5.854;2023-04-24T04:24:20;99725.25;;;8.10;100.00
75036;BME280;64247;51.540;5.854;2023-04-24T04:26:22;99718.25;;;8.09;100.00
75036;BME280;64247;51.540;5.854;2023-04-24T04:28:38;99720.00;;;8.17;100.00
75036;BME280;64247;51.540;5.854;2023-04-24T04:30:39;99719.84;;;8.10;100.00
75036;BME280;64247;51.540;5.854;2023-04-24T04:32:41;99707.66;;;8.00;100.00
75036;BME280;64247;51.540;5.854;2023-04-24T04:34:42;99715.31;;;7.98;100.00
75036;BME280;64247;51.540;5.854;2023-04-24T04:36:46;99712.53;;;7.95;100.00
75036;BME280;64247;51.540;5.854;2023-04-24T04:39:07;99719.25;;;7.85;100.00
75036;BME280;64247;51.540;5.854;2023-04-24T04:41:19;99731.09;;;7.80;100.00
75036;BME280;64247;51.540;5.854;2023-04-24T04:43:21;99719.84;;;7.78;100.00
75036;BME280;64247;51.540;5.854;2023-04-24T04:45:25;99728.31;;;7.76;100.00
75036;BME280;64247;51.540;5.854;2023-04-24T04:47:50;99726.66;;;7.72;100.00
75036;BME280;64247;51.540;5.854;2023-04-24T04:49:51;99725.63;;;7.76;100.00
75036;BME280;64247;51.540;5.854;2023-04-24T04:52:01;99705.50;;;7.74;100.00
75036;BME280;64247;51.540;5.854;2023-04-24T04:54:02;99724.66;;;7.69;100.00
75036;BME280;64247;51.540;5.854;2023-04-24T04:56:03;99736.59;;;7.68;100.00
75036;BME280;64247;51.540;5.854;2023-04-24T04:58:20;99731.97;;;7.68;100.00
75036;BME280;64247;51.540;5.854;2023-04-24T05:00:25;99733.53;;;7.69;100.00
75036;BME280;64247;51.540;5.854;2023-04-24T05:02:28;99738.19;;;7.69;100.00
75036;BME280;64247;51.540;5.854;2023-04-24T05:04:29;99733.81;;;7.64;100.00
75036;BME280;64247;51.540;5.854;2023-04-24T05:06:31;99728.41;;;7.64;100.00
75036;BME280;64247;51.540;5.854;2023-04-24T05:08:31;99730.66;;;7.62;100.00
75036;BME280;64247;51.540;5.854;2023-04-24T05:10:34;99725.63;;;7.60;100.00
75036;BME280;64247;51.540;5.854;2023-04-24T05:12:35;99730.22;;;7.60;100.00
75036;BME280;64247;51.540;5.854;2023-04-24T05:14:37;99734.16;;;7.63;100.00
75036;BME280;64247;51.540;5.854;2023-04-24T05:16:39;99728.25;;;7.57;100.00
75036;BME280;64247;51.540;5.854;2023-04-24T05:18:41;99731.28;;;7.55;100.00
75036;BME280;64247;51.540;5.854;2023-04-24T05:20:45;99728.66;;;7.59;100.00
75036;BME280;64247;51.540;5.854;2023-04-24T05:22:46;99730.94;;;7.57;100.00
75036;BME280;64247;51.540;5.854;2023-04-24T05:24:48;99740.25;;;7.59;100.00
75036;BME280;64247;51.540;5.854;2023-04-24T05:27:05;99731.28;;;7.55;100.00
75036;BME280;64247;51.540;5.854;2023-04-24T05:29:13;99735.91;;;7.55;100.00
75036;BME280;64247;51.540;5.854;2023-04-24T05:31:14;99742.50;;;7.57;100.00
75036;BME280;64247;51.540;5.854;2023-04-24T05:33:15;99740.84;;;7.53;100.00
75036;BME280;64247;51.540;5.854;2023-04-24T05:35:15;99746.09;;;7.62;100.00
75036;BME280;64247;51.540;5.854;2023-04-24T05:37:16;99731.19;;;7.68;100.00
75036;BME280;64247;51.540;5.854;2023-04-24T05:39:17;99736.69;;;7.71;100.00
75036;BME280;64247;51.540;5.854;2023-04-24T05:41:19;99752.47;;;7.69;100.00
75036;BME280;64247;51.540;5.854;2023-04-24T05:43:19;99741.38;;;7.74;100.00
75036;BME280;64247;51.540;5.854;2023-04-24T05:45:21;99754.66;;;7.80;100.00
75036;BME280;64247;51.540;5.854;2023-04-24T05:47:21;99741.47;;;7.78;100.00
75036;BME280;64247;51.540;5.854;2023-04-24T05:49:23;99748.81;;;7.78;100.00
75036;BME280;64247;51.540;5.854;2023-04-24T05:51:24;99739.13;;;7.76;100.00
75036;BME280;64247;51.540;5.854;2023-04-24T05:53:26;99761.88;;;7.75;100.00
75036;BME280;64247;51.540;5.854;2023-04-24T05:55:27;99758.31;;;7.71;100.00
75036;BME280;64247;51.540;5.854;2023-04-24T05:57:28;99750.56;;;7.70;100.00
75036;BME280;64247;51.540;5.854;2023-04-24T05:59:37;99763.63;;;7.68;100.00
75036;BME280;64247;51.540;5.854;2023-04-24T06:01:41;99757.09;;;7.69;100.00
75036;BME280;64247;51.540;5.854;2023-04-24T06:03:48;99760.13;;;7.67;100.00
75036;BME280;64247;51.540;5.854;2023-04-24T06:05:52;99763.97;;;7.66;100.00
75036;BME280;64247;51.540;5.854;2023-04-24T06:07:55;99763.25;;;7.69;100.00
75036;BME280;64247;51.540;5.854;2023-04-24T06:09:59;99761.38;;;7.70;100.00
75036;BME280;64247;51.540;5.854;2023-04-24T06:12:01;99763.25;;;7.69;100.00
75036;BME280;64247;51.540;5.854;2023-04-24T06:14:11;99771.81;;;7.71;100.00
75036;BME280;64247;51.540;5.854;2023-04-24T06:16:33;99767.88;;;7.69;100.00
75036;BME280;64247;51.540;5.854;2023-04-24T06:18:40;99776.31;;;7.67;100.00
75036;BME280;64247;51.540;5.854;2023-04-24T06:20:41;99762.31;;;7.62;100.00
75036;BME280;64247;51.540;5.854;2023-04-24T06:22:44;99766.81;;;7.57;100.00
75036;BME280;64247;51.540;5.854;2023-04-24T06:24:45;99769.53;;;7.57;100.00
75036;BME280;64247;51.540;5.854;2023-04-24T06:26:46;99760.19;;;7.55;100.00
75036;BME280;64247;51.540;5.854;2023-04-24T06:28:47;99779.19;;;7.58;100.00
75036;BME280;64247;51.540;5.854;2023-04-24T06:30:48;99764.91;;;7.58;100.00
75036;BME280;64247;51.540;5.854;2023-04-24T06:32:48;99799.31;;;7.61;100.00
75036;BME280;64247;51.540;5.854;2023-04-24T06:34:51;99807.06;;;7.63;100.00
75036;BME280;64247;51.540;5.854;2023-04-24T06:36:54;99807.50;;;7.65;100.00
75036;BME280;64247;51.540;5.854;2023-04-24T06:38:55;99812.16;;;7.64;100.00
75036;BME280;64247;51.540;5.854;2023-04-24T06:40:57;99804.03;;;7.64;100.00
75036;BME280;64247;51.540;5.854;2023-04-24T06:42:57;99799.78;;;7.63;100.00
75036;BME280;64247;51.540;5.854;2023-04-24T06:45:00;99807.50;;;7.65;100.00
75036;BME280;64247;51.540;5.854;2023-04-24T06:47:01;99800.63;;;7.67;100.00
75036;BME280;64247;51.540;5.854;2023-04-24T06:49:02;99800.31;;;7.69;100.00
75036;BME280;64247;51.540;5.854;2023-04-24T06:51:03;99809.97;;;7.70;100.00
75036;BME280;64247;51.540;5.854;2023-04-24T06:53:04;99827.72;;;7.71;100.00
75036;BME280;64247;51.540;5.854;2023-04-24T06:55:05;99826.28;;;7.73;100.00
75036;BME280;64247;51.540;5.854;2023-04-24T06:57:06;99814.31;;;7.74;100.00
75036;BME280;64247;51.540;5.854;2023-04-24T06:59:07;99830.53;;;7.74;100.00
75036;BME280;64247;51.540;5.854;2023-04-24T07:01:08;99833.59;;;7.73;100.00
75036;BME280;64247;51.540;5.854;2023-04-24T07:03:09;99843.63;;;7.72;100.00
75036;BME280;64247;51.540;5.854;2023-04-24T07:05:10;99860.16;;;7.71;100.00
75036;BME280;64247;51.540;5.854;2023-04-24T07:07:12;99848.84;;;7.65;100.00
75036;BME280;64247;51.540;5.854;2023-04-24T07:09:15;99849.88;;;7.60;100.00
75036;BME280;64247;51.540;5.854;2023-04-24T07:11:19;99870.56;;;7.56;100.00
75036;BME280;64247;51.540;5.854;2023-04-24T07:13:20;99868.56;;;7.53;100.00
75036;BME280;64247;51.540;5.854;2023-04-24T07:15:21;99879.72;;;7.52;100.00
75036;BME280;64247;51.540;5.854;2023-04-24T07:17:22;99883.97;;;7.53;100.00
75036;BME280;64247;51.540;5.854;2023-04-24T07:19:23;99888.34;;;7.57;100.00
75036;BME280;64247;51.540;5.854;2023-04-24T07:21:24;99893.09;;;7.60;100.00
75036;BME280;64247;51.540;5.854;2023-04-24T07:23:26;99903.63;;;7.66;100.00
75036;BME280;64247;51.540;5.854;2023-04-24T07:25:26;99901.47;;;7.71;100.00
75036;BME280;64247;51.540;5.854;2023-04-24T07:27:27;99904.94;;;7.72;100.00
75036;BME280;64247;51.540;5.854;2023-04-24T07:29:28;99910.34;;;7.72;100.00
75036;BME280;64247;51.540;5.854;2023-04-24T07:31:30;99906.06;;;7.71;100.00
75036;BME280;64247;51.540;5.854;2023-04-24T07:33:31;99923.00;;;7.68;100.00
75036;BME280;64247;51.540;5.854;2023-04-24T07:35:32;99921.41;;;7.67;100.00
75036;BME280;64247;51.540;5.854;2023-04-24T07:37:33;99926.13;;;7.70;100.00
75036;BME280;64247;51.540;5.854;2023-04-24T07:39:34;99933.09;;;7.71;100.00
75036;BME280;64247;51.540;5.854;2023-04-24T07:41:35;99943.56;;;7.72;100.00
75036;BME280;64247;51.540;5.854;2023-04-24T07:43:36;99935.78;;;7.71;100.00
75036;BME280;64247;51.540;5.854;2023-04-24T07:45:37;99949.28;;;7.71;100.00
75036;BME280;64247;51.540;5.854;2023-04-24T07:47:38;99962.72;;;7.67;100.00
75036;BME280;64247;51.540;5.854;2023-04-24T07:49:43;99946.41;;;7.64;100.00
75036;BME280;64247;51.540;5.854;2023-04-24T07:51:44;99982.00;;;7.53;100.00
75036;BME280;64247;51.540;5.854;2023-04-24T07:53:45;99991.44;;;7.47;100.00
75036;BME280;64247;51.540;5.854;2023-04-24T07:55:46;99964.34;;;7.43;100.00
75036;BME280;64247;51.540;5.854;2023-04-24T07:57:47;99970.44;;;7.40;100.00
75036;BME280;64247;51.540;5.854;2023-04-24T07:59:48;99986.44;;;7.33;100.00
75036;BME280;64247;51.540;5.854;2023-04-24T08:01:48;100000.47;;;7.26;100.00
75036;BME280;64247;51.540;5.854;2023-04-24T08:03:50;100011.63;;;7.25;100.00
75036;BME280;64247;51.540;5.854;2023-04-24T08:05:51;100003.88;;;7.23;100.00
75036;BME280;64247;51.540;5.854;2023-04-24T08:07:53;100039.97;;;7.19;100.00
75036;BME280;64247;51.540;5.854;2023-04-24T08:09:53;100023.31;;;7.17;100.00
75036;BME280;64247;51.540;5.854;2023-04-24T08:11:54;100032.09;;;7.13;100.00
75036;BME280;64247;51.540;5.854;2023-04-24T08:13:55;100028.97;;;7.11;100.00
75036;BME280;64247;51.540;5.854;2023-04-24T08:15:56;100059.88;;;7.14;100.00
75036;BME280;64247;51.540;5.854;2023-04-24T08:17:58;100048.06;;;7.19;100.00
75036;BME280;64247;51.540;5.854;2023-04-24T08:19:58;100073.16;;;7.19;100.00
75036;BME280;64247;51.540;5.854;2023-04-24T08:22:01;100085.88;;;7.19;100.00
75036;BME280;64247;51.540;5.854;2023-04-24T08:24:04;100085.53;;;7.20;100.00
75036;BME280;64247;51.540;5.854;2023-04-24T08:26:08;100097.22;;;7.24;100.00
75036;BME280;64247;51.540;5.854;2023-04-24T08:28:09;100100.38;;;7.26;100.00
75036;BME280;64247;51.540;5.854;2023-04-24T08:30:11;100079.22;;;7.28;100.00
75036;BME280;64247;51.540;5.854;2023-04-24T08:32:12;100103.66;;;7.32;100.00
75036;BME280;64247;51.540;5.854;2023-04-24T08:34:13;100092.50;;;7.34;100.00
75036;BME280;64247;51.540;5.854;2023-04-24T08:36:14;100113.31;;;7.33;100.00
75036;BME280;64247;51.540;5.854;2023-04-24T08:38:15;100121.06;;;7.35;100.00
75036;BME280;64247;51.540;5.854;2023-04-24T08:40:17;100112.31;;;7.38;100.00
75036;BME280;64247;51.540;5.854;2023-04-24T08:42:19;100122.88;;;7.43;100.00
75036;BME280;64247;51.540;5.854;2023-04-24T08:44:21;100126.47;;;7.47;100.00
75036;BME280;64247;51.540;5.854;2023-04-24T08:46:22;100123.00;;;7.47;100.00
75036;BME280;64247;51.540;5.854;2023-04-24T08:48:25;100129.16;;;7.47;100.00
75036;BME280;64247;51.540;5.854;2023-04-24T08:50:27;100145.72;;;7.45;100.00
75036;BME280;64247;51.540;5.854;2023-04-24T08:52:30;100150.47;;;7.49;100.00
75036;BME280;64247;51.540;5.854;2023-04-24T08:54:34;100141.56;;;7.48;100.00
75036;BME280;64247;51.540;5.854;2023-04-24T08:56:37;100160.03;;;7.46;100.00
75036;BME280;64247;51.540;5.854;2023-04-24T08:58:41;100171.25;;;7.48;100.00
75036;BME280;64247;51.540;5.854;2023-04-24T09:00:42;100158.69;;;7.52;100.00
75036;BME280;64247;51.540;5.854;2023-04-24T09:02:49;100177.25;;;7.54;100.00
75036;BME280;64247;51.540;5.854;2023-04-24T09:04:52;100184.22;;;7.55;100.00
75036;BME280;64247;51.540;5.854;2023-04-24T09:06:56;100198.31;;;7.60;100.00
75036;BME280;64247;51.540;5.854;2023-04-24T09:09:00;100192.31;;;7.67;100.00
75036;BME280;64247;51.540;5.854;2023-04-24T09:11:03;100192.13;;;7.72;100.00
75036;BME280;64247;51.540;5.854;2023-04-24T09:13:05;100201.47;;;7.75;100.00
75036;BME280;64247;51.540;5.854;2023-04-24T09:15:07;100197.06;;;7.70;100.00
75036;BME280;64247;51.540;5.854;2023-04-24T09:17:08;100212.94;;;7.72;100.00
75036;BME280;64247;51.540;5.854;2023-04-24T09:19:09;100205.16;;;7.70;100.00
75036;BME280;64247;51.540;5.854;2023-04-24T09:21:10;100194.72;;;7.69;100.00
75036;BME280;64247;51.540;5.854;2023-04-24T09:23:17;100203.47;;;7.66;100.00
75036;BME280;64247;51.540;5.854;2023-04-24T09:25:18;100220.91;;;7.68;100.00
75036;BME280;64247;51.540;5.854;2023-04-24T09:27:23;100228.72;;;7.70;100.00
75036;BME280;64247;51.540;5.854;2023-04-24T09:29:24;100221.59;;;7.78;100.00
75036;BME280;64247;51.540;5.854;2023-04-24T09:31:27;100218.91;;;7.90;100.00
75036;BME280;64247;51.540;5.854;2023-04-24T09:33:30;100238.84;;;7.98;100.00
75036;BME280;64247;51.540;5.854;2023-04-24T09:35:32;100246.72;;;8.03;100.00
75036;BME280;64247;51.540;5.854;2023-04-24T09:37:35;100252.25;;;8.06;100.00
75036;BME280;64247;51.540;5.854;2023-04-24T09:39:38;100231.41;;;8.07;100.00
75036;BME280;64247;51.540;5.854;2023-04-24T09:41:55;100239.19;;;8.08;100.00
75036;BME280;64247;51.540;5.854;2023-04-24T09:44:13;100244.47;;;8.17;100.00
75036;BME280;64247;51.540;5.854;2023-04-24T09:46:34;100256.97;;;8.34;100.00
75036;BME280;64247;51.540;5.854;2023-04-24T09:48:36;100265.19;;;8.50;100.00
75036;BME280;64247;51.540;5.854;2023-04-24T09:50:38;100263.00;;;8.68;100.00
75036;BME280;64247;51.540;5.854;2023-04-24T09:52:47;100259.03;;;8.91;100.00
75036;BME280;64247;51.540;5.854;2023-04-24T09:54:57;100271.66;;;9.15;100.00
75036;BME280;64247;51.540;5.854;2023-04-24T09:56:58;100283.44;;;9.35;100.00
75036;BME280;64247;51.540;5.854;2023-04-24T09:59:07;100286.69;;;9.57;100.00
75036;BME280;64247;51.540;5.854;2023-04-24T10:01:08;100294.00;;;9.85;100.00
75036;BME280;64247;51.540;5.854;2023-04-24T10:03:10;100295.47;;;9.98;100.00
75036;BME280;64247;51.540;5.854;2023-04-24T10:05:11;100280.00;;;9.82;100.00
75036;BME280;64247;51.540;5.854;2023-04-24T10:07:14;100290.81;;;9.66;100.00
75036;BME280;64247;51.540;5.854;2023-04-24T10:09:20;100312.47;;;9.50;100.00
75036;BME280;64247;51.540;5.854;2023-04-24T10:11:24;100313.69;;;9.37;100.00
75036;BME280;64247;51.540;5.854;2023-04-24T10:13:27;100308.19;;;9.21;100.00
75036;BME280;64247;51.540;5.854;2023-04-24T10:15:29;100277.91;;;9.03;100.00
75036;BME280;64247;51.540;5.854;2023-04-24T10:17:31;100305.25;;;8.85;100.00
75036;BME280;64247;51.540;5.854;2023-04-24T10:19:33;100314.88;;;8.70;100.00
75036;BME280;64247;51.540;5.854;2023-04-24T10:21:36;100309.25;;;8.63;100.00
75036;BME280;64247;51.540;5.854;2023-04-24T10:23:42;100316.91;;;8.61;100.00
75036;BME280;64247;51.540;5.854;2023-04-24T10:25:44;100323.44;;;8.73;100.00
75036;BME280;64247;51.540;5.854;2023-04-24T10:27:46;100321.84;;;8.84;100.00
75036;BME280;64247;51.540;5.854;2023-04-24T10:29:49;100328.91;;;9.01;100.00
75036;BME280;64247;51.540;5.854;2023-04-24T10:31:53;100334.50;;;9.21;100.00
75036;BME280;64247;51.540;5.854;2023-04-24T10:33:54;100342.66;;;9.37;100.00
75036;BME280;64247;51.540;5.854;2023-04-24T10:35:57;100335.13;;;9.58;100.00
75036;BME280;64247;51.540;5.854;2023-04-24T10:38:06;100341.13;;;9.80;100.00
75036;BME280;64247;51.540;5.854;2023-04-24T10:40:10;100317.78;;;10.07;100.00
75036;BME280;64247;51.540;5.854;2023-04-24T10:42:15;100334.81;;;10.24;99.13
75036;BME280;64247;51.540;5.854;2023-04-24T10:44:17;100350.22;;;10.36;99.54
75036;BME280;64247;51.540;5.854;2023-04-24T10:46:21;100343.69;;;10.37;96.96
75036;BME280;64247;51.540;5.854;2023-04-24T10:48:26;100332.75;;;10.17;89.62